Electron, Washington
Current Conditions -  °F | °C
As of 8:58 PM on Monday 20 Oct 2014 (Local Time) from KTCM Reporting Station
Light Rain Light Rain  
Wind Chill: 55°   Ceiling: 4200
Heat Index: 55°   Visibility: 9mi
Dew Point: 53°   Wind: 6mph
Humidity: 96%   Direction: 190°S
Pressure: 29.79"   Gusts: NA
Location:  46.993°N, 122.097°W
Report Text: KTCM 210358Z AUTO 19005KT 9SM -RA BKN042 BKN049 OVC060 13/12 A2979 RMK AO2 RAB0348 SLP091 P0001 T01250119
Loading
Personal Weather Stations






























Interactive Weather Map
Tropical Storm Tracking
New forecast layout! Learn more

10-Day Weather Forecast

Advertisements
Track Severe Weather on mobile